Latest Weather Observations for Laverton

IDV60801

Issued at 5:52 am EDT Saturday 19 October 2019 (issued every 10 minutes, with the page automatically refreshed every 10 minutes)

About weather observations | Map of weather stations | Latest weather observations for VIC | Other Formats
Station Details ID: 087031 Name: LAVERTON RAAF Lat: -37.86 Lon: 144.76 Height: 20.1 m
Data from the previous 72 hours. | See also: Recent months at Laverton
Date/Time
EDT
Temp
°C
App
Temp
°C
Dew
Point
°C
Rel
Hum
%
Delta-T
°C
Wind Press
QNH
hPa
Press
MSL
hPa
Rain since
9am
mm
Dir  Spd
km/h
Gust
km/h
Spd
kts
Gust
kts
19/05:30am 9.2 4.6 5.6 78 1.6 W 19 26 10 14 1013.4 1013.3 0.2
19/05:00am 8.0 4.6 5.8 86 1.0 WNW 13 15 7 8 1013.1 1013.0 0.2
19/04:30am 8.5 5.5 5.8 83 1.2 WNW 11 13 6 7 1012.9 1012.8 0.2
19/04:00am 8.8 5.0 5.9 82 1.3 WNW 15 19 8 10 1013.0 1012.9 0.2
19/03:30am 8.7 5.4 6.5 86 1.0 NW 13 19 7 10 1013.2 1013.1 0.2
19/03:00am 7.6 4.1 5.4 86 1.0 NW 13 17 7 9 1013.2 1013.1 0.2
19/02:30am 8.3 4.9 5.8 84 1.1 NW 13 17 7 9 1013.2 1013.1 0.2
19/02:00am 9.3 6.8 6.6 83 1.3 WNW 9 13 5 7 1013.5 1013.4 0.2
19/01:30am 9.9 7.9 6.4 79 1.6 W 6 9 3 5 1013.7 1013.6 0.2
19/01:00am 10.6 7.3 6.6 76 1.9 WSW 13 19 7 10 1013.7 1013.6 0.2
19/12:30am 11.2 7.3 6.9 75 2.0 WSW 17 22 9 12 1013.8 1013.7 0.2
19/12:00am 10.9 8.8 8.1 83 1.4 NW 9 15 5 8 1013.8 1013.7 0.2
 
Date/Time
EDT
Temp
°C
App
Temp
°C
Dew
Point
°C
Rel
Hum
%
Delta-T
°C
Wind Press
QNH
hPa
Press
MSL
hPa
Rain since
9am
mm
Dir  Spd
km/h
Gust
km/h
Spd
kts
Gust
kts
18/11:30pm 11.6 9.9 8.5 81 1.5 W 7 9 4 5 1013.7 1013.6 0.2
18/11:00pm 11.8 9.3 8.3 79 1.7 W 11 17 6 9 1013.8 1013.7 0.2
18/10:30pm 11.7 8.6 8.7 82 1.5 W 15 20 8 11 1013.8 1013.7 0.2
18/10:00pm 11.6 7.7 8.8 83 1.4 W 19 26 10 14 1013.6 1013.5 0.2
18/09:30pm 11.3 7.0 9.4 88 1.0 WSW 22 35 12 19 1013.7 1013.6 0.2
18/09:21pm 11.2 6.2 9.5 89 0.9 WSW 26 41 14 22 1013.6 1013.5 0.2
18/09:00pm 11.3 4.9 9.2 87 1.1 SW 33 56 18 30 1013.3 1013.2 0.0
18/08:57pm 11.6 4.8 9.2 85 1.2 SW 35 56 19 30 1013.2 1013.1 0.0
18/08:44pm 13.2 7.6 10.0 81 1.6 SW 30 52 16 28 1012.7 1012.6 0.0
18/08:30pm 13.3 7.7 10.1 81 1.7 SW 30 43 16 23 1012.2 1012.1 0.0
18/08:19pm 13.5 6.9 10.1 80 1.8 SW 35 59 19 32 1011.7 1011.6 0.0
18/08:00pm 13.2 7.1 10.4 83 1.5 SW 33 46 18 25 1011.3 1011.3 0.0
18/07:39pm 15.5 9.1 8.7 64 3.5 WSW 32 57 17 31 1010.9 1010.9 0.0
18/07:36pm 19.8 13.1 3.9 35 7.6 W 28 54 15 29 1010.5 1010.5 0.0
18/07:30pm 19.7 13.3 3.4 34 7.7 WNW 26 37 14 20 1009.7 1009.7 0.0
18/07:05pm 20.1 12.6 3.3 33 7.9 WNW 32 50 17 27 1009.1 1009.1 0.0
18/07:00pm 20.2 12.7 3.4 33 8.0 WNW 32 43 17 23 1009.1 1009.1 0.0
18/06:30pm 21.2 13.5 3.4 31 8.5 WNW 33 44 18 24 1008.9 1008.9 0.0
18/06:15pm 21.5 13.7 2.7 29 8.9 WNW 33 52 18 28 1009.0 1009.0 0.0
18/06:00pm 21.4 12.9 3.1 30 8.7 WNW 37 50 20 27 1009.0 1009.0 0.0
18/05:37pm 21.7 12.3 2.4 28 9.1 WNW 41 61 22 33 1009.1 1009.1 0.0
18/05:30pm 21.2 12.6 2.5 29 8.8 NW 37 50 20 27 1009.1 1009.1 0.0
18/05:04pm 22.1 14.4 3.3 29 9.0 WNW 33 52 18 28 1009.4 1009.4 0.0
18/05:00pm 21.5 13.8 3.2 30 8.7 WNW 33 50 18 27 1009.5 1009.5 0.0
18/04:30pm 20.3 11.4 3.1 32 8.1 NW 39 52 21 28 1009.8 1009.8 0.0
18/04:00pm 20.7 13.1 3.9 33 8.1 NW 33 46 18 25 1009.9 1009.9 0.0
18/03:33pm 20.5 11.6 3.3 32 8.1 NW 39 59 21 32 1010.1 1010.1 0.0
18/03:30pm 20.7 12.3 3.9 33 8.1 NW 37 50 20 27 1010.2 1010.2 0.0
18/03:00pm 21.3 12.3 4.4 33 8.2 NW 41 63 22 34 1010.5 1010.5 0.0
18/02:30pm 20.5 11.4 4.1 34 7.9 NW 41 65 22 35 1010.8 1010.8 0.0
18/02:00pm 19.8 12.0 4.7 37 7.3 NW 35 65 19 35 1011.4 1011.4 0.0
18/01:46pm 20.3 11.7 4.8 36 7.5 NW 39 57 21 31 1011.7 1011.6 0.0
18/01:30pm 19.6 11.8 4.9 38 7.1 NW 35 52 19 28 1012.0 1011.9 0.0
18/01:00pm 18.7 9.7 4.5 39 6.8 NW 41 54 22 29 1012.6 1012.5 0.0
18/12:38pm 18.7 11.0 5.2 41 6.6 WNW 35 54 19 29 1012.8 1012.7 0.0
18/12:30pm 18.0 10.6 5.2 43 6.2 NW 33 46 18 25 1013.0 1012.9 0.0
18/12:00pm 17.6 10.2 4.9 43 6.1 NW 33 48 18 26 1013.6 1013.5 0.0
18/11:33am 17.0 9.6 5.0 45 5.7 NW 33 50 18 27 1014.2 1014.1 0.0
18/11:30am 16.5 9.0 4.5 45 5.6 NW 33 46 18 25 1014.3 1014.2 0.0
18/11:00am 16.1 8.6 4.5 46 5.4 WNW 33 46 18 25 1014.8 1014.7 0.0
18/10:54am 16.9 9.6 4.6 44 5.8 WNW 32 50 17 27 1014.8 1014.7 0.0
18/10:30am 15.8 8.8 4.2 46 5.4 NW 30 46 16 25 1014.9 1014.8 0.0
18/10:00am 14.0 9.1 4.0 51 4.6 NNW 19 32 10 17 1015.1 1015.0 0.0
18/09:30am 13.0 8.4 3.9 54 4.1 N 17 26 9 14 1015.5 1015.5 0.0
18/09:00am 11.5 6.6 4.0 60 3.3 N 19 24 10 13 1015.7 1015.7 0.0
18/08:30am 10.6 6.5 4.1 64 2.9 NNW 15 24 8 13 1015.9 1015.9 0.0
18/08:00am 9.2 5.8 4.0 70 2.3 N 11 15 6 8 1015.8 1015.8 0.0
18/07:30am 7.1 4.1 3.9 80 1.4 N 9 13 5 7 1015.8 1015.8 0.0
18/07:00am 5.9 2.3 2.7 80 1.3 N 11 15 6 8 1015.8 1015.8 0.0
18/06:30am 5.9 1.9 2.9 81 1.2 NNW 13 19 7 10 1015.6 1015.6 0.0
18/06:00am 5.2 2.3 2.7 84 1.0 NNW 7 9 4 5 1015.6 1015.6 0.0
18/05:30am 5.6 2.8 3.1 84 1.0 NNW 7 9 4 5 1015.8 1015.8 0.0
18/05:00am 5.7 2.9 3.0 83 1.1 NNW 7 9 4 5 1015.7 1015.7 0.0
18/04:30am 6.4 2.8 3.2 80 1.3 NNW 11 15 6 8 1015.7 1015.7 0.0
18/04:00am 7.2 4.1 3.6 78 1.5 NNW 9 13 5 7 1016.0 1016.0 0.0
18/03:30am 7.7 4.2 3.7 76 1.7 NW 11 15 6 8 1016.2 1016.2 0.0
18/03:00am 7.2 3.8 4.2 81 1.3 NW 11 15 6 8 1016.4 1016.4 0.0
18/02:30am 6.0 2.6 3.8 86 0.9 NW 11 13 6 7 1016.6 1016.6 0.0
18/02:00am 6.3 2.2 4.3 87 0.9 NW 15 17 8 9 1016.7 1016.7 0.0
18/01:30am 6.7 3.0 4.7 87 0.9 WNW 13 15 7 8 1016.9 1016.9 0.0
18/01:00am 7.9 4.4 5.5 85 1.1 WNW 13 17 7 9 1017.1 1017.1 0.0
18/12:30am 9.1 6.1 5.8 80 1.5 W 11 17 6 9 1017.0 1017.0 0.0
18/12:00am 9.7 6.0 6.4 80 1.5 W 15 20 8 11 1017.0 1017.0 0.0
 
Date/Time
EDT
Temp
°C
App
Temp
°C
Dew
Point
°C
Rel
Hum
%
Delta-T
°C
Wind Press
QNH
hPa
Press
MSL
hPa
Rain since
9am
mm
Dir  Spd
km/h
Gust
km/h
Spd
kts
Gust
kts
17/11:30pm 10.1 6.1 6.8 80 1.6 W 17 22 9 12 1017.2 1017.2 0.0
17/11:00pm 10.9 7.4 7.2 78 1.8 W 15 20 8 11 1017.2 1017.2 0.0
17/10:30pm 11.2 6.3 6.9 75 2.0 WSW 22 35 12 19 1017.1 1017.1 0.0
17/10:00pm 11.4 7.0 7.3 76 2.0 WSW 20 32 11 17 1017.1 1017.1 0.0
17/09:30pm 11.7 7.2 7.0 73 2.2 WSW 20 32 11 17 1016.7 1016.7 0.0
17/09:00pm 12.0 7.1 6.9 71 2.4 WSW 22 32 12 17 1016.1 1016.1 0.0
17/08:30pm 12.4 7.3 6.2 66 2.9 WSW 22 30 12 16 1015.4 1015.4 0.0
17/08:00pm 12.6 7.5 6.0 64 3.1 WSW 22 28 12 15 1014.7 1014.6 0.0
17/07:30pm 13.1 7.6 6.0 62 3.4 WSW 24 39 13 21 1014.1 1014.0 0.0
17/07:00pm 14.1 8.7 6.5 60 3.7 SW 24 43 13 23 1013.5 1013.4 0.0
17/06:30pm 13.4 7.1 7.2 66 3.0 WSW 30 43 16 23 1013.0 1012.9 0.0
17/06:00pm 13.6 7.0 7.8 68 2.9 WSW 32 44 17 24 1012.5 1012.4 0.0
17/05:33pm 13.7 7.8 7.7 67 3.0 WSW 28 46 15 25 1012.0 1011.9 0.0
17/05:30pm 13.5 7.4 8.1 70 2.7 WSW 30 43 16 23 1011.9 1011.8 0.0
17/05:05pm 14.9 6.5 5.4 53 4.5 WSW 39 61 21 33 1011.1 1011.1 0.0
17/05:00pm 15.4 7.2 4.5 48 5.1 WSW 37 52 20 28 1010.8 1010.8 0.0
17/04:33pm 16.0 9.0 5.9 51 4.9 WSW 32 50 17 27 1010.2 1010.2 0.0
17/04:30pm 16.6 9.6 6.1 50 5.1 WSW 32 44 17 24 1010.1 1010.1 0.0
17/04:00pm 15.2 7.3 6.0 54 4.4 W 37 56 20 30 1010.0 1010.0 0.0
17/03:37pm 14.9 6.6 6.2 56 4.2 W 39 59 21 32 1010.0 1010.0 0.0
17/03:30pm 15.1 7.2 6.1 55 4.3 W 37 52 20 28 1010.1 1010.1 0.0
17/03:00pm 14.8 7.3 6.1 56 4.2 W 35 57 19 31 1010.2 1010.2 0.0
17/02:30pm 15.4 7.1 6.2 54 4.4 W 39 61 21 33 1010.2 1010.2 0.0
17/02:02pm 14.0 5.9 5.1 55 4.2 W 37 56 20 30 1010.2 1010.2 0.0
17/02:00pm 14.6 6.2 5.4 54 4.4 W 39 56 21 30 1010.2 1010.2 0.0
17/01:48pm 14.3 6.8 6.2 58 3.9 W 35 54 19 29 1010.3 1010.3 0.0
17/01:30pm 12.0 4.5 6.1 67 2.8 WNW 35 50 19 27 1010.3 1010.3 0.0
17/01:29pm 11.8 4.3 6.1 68 2.7 WNW 35 50 19 27 1010.3 1010.3 0.0
17/01:00pm 11.2 2.0 5.5 68 2.6 WSW 43 65 23 35 1010.4 1010.4 0.0
17/12:30pm 13.6 5.9 5.3 57 3.9 W 35 54 19 29 1009.8 1009.8 0.0
17/12:03pm 15.2 7.8 4.0 47 5.2 W 32 54 17 29 1009.3 1009.3 0.0
17/12:00pm 14.8 7.4 4.2 49 4.9 W 32 41 17 22 1009.2 1009.2 0.0
17/11:30am 15.2 7.8 4.9 50 4.8 WSW 33 54 18 29 1009.3 1009.3 0.0
17/11:01am 13.4 6.2 4.8 56 4.0 W 32 52 17 28 1009.2 1009.2 0.0
17/11:00am 13.6 6.4 5.0 56 4.0 W 32 46 17 25 1009.3 1009.3 0.0
17/10:33am 12.2 4.7 4.2 58 3.6 WSW 33 54 18 29 1009.5 1009.5 0.0
17/10:30am 12.4 5.1 4.6 59 3.6 WSW 32 46 17 25 1009.5 1009.5 0.0
17/10:00am 12.4 5.7 5.8 64 3.1 W 30 44 16 24 1009.5 1009.5 0.0
17/09:30am 10.5 4.1 5.1 69 2.5 W 28 39 15 21 1009.4 1009.4 0.0
17/09:00am 10.1 2.9 5.1 71 2.3 W 32 48 17 26 1008.9 1008.9 2.0
17/08:59am 10.1 3.3 4.9 70 2.3 W 30 48 16 26 1008.9 1008.9 2.0
17/08:30am 10.1 5.2 5.1 71 2.3 WNW 20 32 11 17 1008.7 1008.7 2.0
17/08:00am 9.3 4.0 5.1 75 1.9 NW 22 30 12 16 1008.5 1008.5 2.0
17/07:30am 9.4 4.4 4.8 73 2.1 W 20 28 11 15 1008.2 1008.2 2.0
17/07:00am 8.0 4.4 4.8 80 1.4 WNW 13 17 7 9 1007.8 1007.8 2.0
17/06:30am 7.5 3.5 4.8 83 1.2 NW 15 20 8 11 1007.2 1007.2 2.0
17/06:00am 8.0 4.1 5.3 83 1.2 NW 15 24 8 13 1006.9 1006.9 2.0
17/05:30am 9.7 5.8 7.3 85 1.1 NW 17 30 9 16 1006.7 1006.7 2.0
17/05:00am 9.3 6.2 7.3 87 0.9 NW 13 15 7 8 1006.6 1006.6 2.0
17/04:30am 9.7 7.2 8.1 90 0.8 NW 11 15 6 8 1006.5 1006.5 2.0
17/04:00am 9.9 5.8 7.7 86 1.1 W 19 28 10 15 1006.7 1006.7 2.0
17/03:30am 10.3 6.2 10.1 99 0.1 WNW 22 39 12 21 1006.8 1006.8 1.8
17/03:00am 9.3 7.1 9.2 99 0.0 NW 11 13 6 7 1006.8 1006.8 1.8
17/02:30am 10.3 9.1 10.3 100 0.0 NNW 7 13 4 7 1007.0 1007.0 1.8
17/02:00am 10.4 8.8 10.2 99 0.1 W 9 11 5 6 1006.9 1006.9 1.8
17/01:42am 10.1 8.8 10.0 99 0.1 WSW 7 9 4 5 1007.6 1007.6 1.8
17/01:30am 10.4 9.2 10.2 99 0.1 SW 7 9 4 5 1007.7 1007.7 1.8
17/01:11am 10.9 9.4 10.7 99 0.1 SW 9 11 5 6 1007.9 1007.9 1.8
17/01:00am 10.7 9.2 10.5 99 0.1 SW 9 11 5 6 1008.1 1008.1 1.8
17/12:30am 11.7 11.0 11.5 99 0.1 WSW 6 6 3 3 1008.4 1008.4 1.8
17/12:00am 11.8 10.6 11.5 98 0.2 SW 9 13 5 7 1008.7 1008.7 1.6
 
Date/Time
EDT
Temp
°C
App
Temp
°C
Dew
Point
°C
Rel
Hum
%
Delta-T
°C
Wind Press
QNH
hPa
Press
MSL
hPa
Rain since
9am
mm
Dir  Spd
km/h
Gust
km/h
Spd
kts
Gust
kts
16/11:32pm 12.0 11.5 10.7 92 0.7 WSW 4 6 2 3 1008.9 1008.9 1.6
16/11:30pm 12.0 11.5 10.7 92 0.7 WSW 4 6 2 3 1008.9 1008.9 1.6
16/11:16pm 12.4 11.4 11.0 91 0.7 SW 7 11 4 6 1009.0 1009.0 1.6
16/11:00pm 12.6 11.8 11.2 91 0.7 SSW 6 6 3 3 1009.2 1009.2 1.2
16/10:30pm 12.7 11.9 11.1 90 0.8 SSW 6 7 3 4 1009.2 1009.2 1.0
16/10:00pm 12.6 12.9 10.8 89 0.9 CALM 0 0 0 0 1009.4 1009.4 1.0
16/09:30pm 13.2 11.9 9.8 80 1.7 SSW 7 9 4 5 1009.4 1009.4 0.8
16/09:00pm 12.9 11.4 9.2 78 1.9 S 7 9 4 5 1009.2 1009.2 0.8
16/08:30pm 13.5 11.3 9.2 75 2.2 SSE 11 17 6 9 1009.1 1009.1 0.8
16/08:00pm 14.0 12.8 10.4 79 1.9 SSE 7 9 4 5 1009.1 1009.1 0.8
16/07:30pm 14.1 12.5 10.3 78 2.0 SSE 9 13 5 7 1008.7 1008.7 0.8
16/07:00pm 14.1 12.3 10.7 80 1.8 SSE 11 17 6 9 1008.4 1008.4 0.8
16/06:30pm 14.2 11.7 12.2 88 1.1 S 17 22 9 12 1008.0 1008.0 0.8
16/06:00pm 14.6 11.9 11.6 82 1.6 SSW 17 28 9 15 1007.7 1007.7 0.8
16/05:30pm 15.6 10.8 10.4 71 2.7 SW 26 39 14 21 1007.7 1007.7 0.8
16/05:00pm 15.6 13.1 12.4 81 1.8 W 17 22 9 12 1007.3 1007.3 0.8
16/04:30pm 14.5 12.7 12.0 85 1.4 WNW 13 19 7 10 1007.6 1007.6 0.8
16/04:00pm 15.2 10.6 11.2 77 2.1 SW 26 39 14 21 1007.6 1007.6 0.2
16/03:45pm 16.3 10.6 9.9 66 3.4 SW 30 48 16 26 1007.6 1007.6 0.2
16/03:30pm 16.7 10.4 9.1 61 3.9 SW 32 46 17 25 1007.6 1007.6 0.2
16/03:23pm 17.6 12.5 10.7 64 3.7 SW 28 46 15 25 1007.5 1007.5 0.2
16/03:00pm 19.8 15.7 8.5 48 5.9 WNW 20 28 11 15 1007.4 1007.4 0.2
16/02:30pm 19.8 14.5 8.5 48 5.9 NW 26 37 14 20 1007.9 1007.9 0.2
16/02:00pm 19.4 14.0 8.1 48 5.8 NW 26 37 14 20 1008.5 1008.5 0.2
16/01:30pm 18.8 14.3 8.7 52 5.3 NW 22 32 12 17 1008.6 1008.6 0.2
16/01:00pm 19.6 15.6 9.2 51 5.5 NW 20 32 11 17 1008.9 1008.9 0.2
16/12:30pm 18.5 15.9 10.6 60 4.3 NNW 15 24 8 13 1009.4 1009.4 0.2
16/12:00pm 16.5 14.1 10.1 66 3.4 N 13 19 7 10 1009.9 1009.9 0.2
16/11:30am 15.6 13.5 9.9 69 3.0 N 11 15 6 8 1010.1 1010.1 0.2
16/11:00am 15.2 12.7 9.8 70 2.8 NNE 13 17 7 9 1009.9 1009.9 0.2
16/10:30am 14.8 12.7 11.2 79 1.9 N 13 19 7 10 1010.4 1010.4 0.2
16/10:00am 14.0 12.4 11.5 85 1.3 NNW 11 15 6 8 1010.7 1010.7 0.2
16/09:30am 13.5 11.9 11.7 89 1.0 NW 11 13 6 7 1011.1 1011.1 0.0
16/09:00am 13.6 14.1 11.5 87 1.1 CALM 0 7 0 4 1011.0 1011.0 0.0
16/08:30am 13.2 13.5 12.1 93 0.6 SSW 2 6 1 3 1011.1 1011.1 0.0
16/08:00am 12.8 13.4 12.0 95 0.4 CALM 0 0 0 0 1011.0 1011.0 0.0
16/07:30am 12.6 13.0 11.3 92 0.7 CALM 0 0 0 0 1011.7 1011.6 0.0
16/07:00am 12.5 11.6 10.7 89 0.9 SSW 6 7 3 4 1011.3 1011.3 0.0
16/06:30am 12.4 11.5 10.6 89 0.9 SSW 6 7 3 4 1011.4 1011.4 0.0
16/06:00am 12.4 11.5 10.8 90 0.8 SSW 6 7 3 4 1011.4 1011.4 0.0

Other formats

Comma delimited format used in spreadsheet applications
http://www.bom.gov.au/fwo/IDV60801/IDV60801.94865.axf

JavaScript Object Notation format (JSON) in row-major order
http://www.bom.gov.au/fwo/IDV60801/IDV60801.94865.json

Data quality

Most of these data are generated automatically and are frequently updated. Quality checks on data are not normally performed. It is possible for incorrect values to appear. Refer to information at About Latest Weather Observations and please check the disclaimer before using these data.